Terminal Aerodrome Forecast
Issued by NWS

Home | Current Version | Previous Version | Text Only | Print | Product List | Glossary On
Versions: 1 2 3 4 5 6 7 8 9 10 11 12 13
000
FTUS44 KBMX 251913 AAA
TAFANB
TAF AMD
KANB 251913Z 2519/2618 16010G20KT P6SM VCSH BKN045
     FM252200 18010G20KT 3SM RA VCTS OVC030CB
     FM260000 24010G15KT P6SM VCSH BKN020
     FM261200 16006KT P6SM SHRA BKN020=

USA.gov is the U.S. government's official web portal to all federal, state and local government web resources and services.